createdAt,value
2018-09-23T00:00:00.242Z,600.00
2018-09-23T00:01:00.267Z,600.00
2018-09-23T00:02:00.291Z,600.00
2018-09-23T00:03:00.313Z,600.00
2018-09-23T00:04:00.338Z,604.00
2018-09-23T00:05:00.364Z,604.00
2018-09-23T00:06:00.387Z,604.00
2018-09-23T00:07:00.412Z,600.00
2018-09-23T00:08:00.440Z,604.00
2018-09-23T00:09:00.456Z,604.00
2018-09-23T00:10:00.481Z,600.00
2018-09-23T00:11:00.507Z,600.00
2018-09-23T00:12:00.529Z,604.00
2018-09-23T00:13:00.555Z,604.00
2018-09-23T00:14:00.580Z,604.00
2018-09-23T00:15:00.600Z,604.00
2018-09-23T00:16:00.628Z,600.00
2018-09-23T00:17:00.648Z,604.00
2018-09-23T00:18:00.672Z,604.00
2018-09-23T00:19:00.697Z,604.00
2018-09-23T00:20:00.721Z,604.00
2018-09-23T00:21:00.745Z,604.00
2018-09-23T00:22:00.768Z,604.00
2018-09-23T00:23:00.791Z,600.00
2018-09-23T00:24:00.816Z,600.00
2018-09-23T00:25:00.839Z,600.00
2018-09-23T00:26:00.867Z,600.00
2018-09-23T00:27:00.888Z,600.00
2018-09-23T00:28:00.911Z,604.00
2018-09-23T00:29:00.936Z,604.00
2018-09-23T00:30:00.959Z,604.00
2018-09-23T00:31:00.984Z,604.00
2018-09-23T00:32:01.008Z,600.00
2018-09-23T00:33:01.031Z,604.00
2018-09-23T00:34:01.054Z,604.00
2018-09-23T00:35:01.078Z,604.00
2018-09-23T00:36:01.103Z,600.00
2018-09-23T00:37:01.127Z,604.00
2018-09-23T00:38:01.150Z,604.00
2018-09-23T00:39:01.175Z,604.00
2018-09-23T00:40:01.197Z,600.00
2018-09-23T00:41:01.222Z,604.00
2018-09-23T00:42:01.245Z,604.00
2018-09-23T00:43:01.270Z,600.00
2018-09-23T00:44:01.295Z,604.00
2018-09-23T00:45:01.317Z,600.00
2018-09-23T00:46:01.340Z,600.00
2018-09-23T00:47:01.365Z,604.00
2018-09-23T00:48:01.390Z,604.00
2018-09-23T00:49:01.412Z,600.00
2018-09-23T00:50:01.436Z,604.00
2018-09-23T00:51:01.462Z,604.00
2018-09-23T00:52:01.486Z,604.00
2018-09-23T00:53:01.510Z,604.00
2018-09-23T00:54:01.531Z,600.00
2018-09-23T00:55:01.556Z,600.00
2018-09-23T00:56:01.581Z,600.00
2018-09-23T00:57:01.604Z,600.00
2018-09-23T00:58:01.626Z,600.00
2018-09-23T00:59:01.650Z,604.00
2018-09-23T01:00:01.675Z,600.00
2018-09-23T01:01:01.701Z,604.00
2018-09-23T01:02:01.724Z,600.00
2018-09-23T01:03:01.745Z,604.00
2018-09-23T01:04:01.771Z,604.00
2018-09-23T01:05:01.793Z,604.00
2018-09-23T01:06:01.821Z,604.00
2018-09-23T01:07:01.840Z,604.00
2018-09-23T01:08:01.867Z,604.00
2018-09-23T01:09:01.890Z,604.00
2018-09-23T01:10:01.914Z,600.00
2018-09-23T01:11:01.937Z,604.00
2018-09-23T01:12:01.964Z,604.00
2018-09-23T01:13:01.984Z,604.00
2018-09-23T01:14:02.011Z,604.00
2018-09-23T01:15:02.035Z,604.00
2018-09-23T01:16:02.057Z,604.00
2018-09-23T01:17:02.079Z,604.00
2018-09-23T01:18:02.103Z,604.00
2018-09-23T01:19:02.130Z,600.00
2018-09-23T01:20:02.155Z,600.00
2018-09-23T01:21:02.175Z,604.00
2018-09-23T01:22:02.200Z,600.00
2018-09-23T01:23:02.222Z,604.00
2018-09-23T01:24:02.248Z,600.00
2018-09-23T01:25:02.272Z,604.00
2018-09-23T01:26:02.299Z,600.00
2018-09-23T01:27:02.319Z,600.00
2018-09-23T01:28:02.345Z,600.00
2018-09-23T01:29:02.368Z,604.00
2018-09-23T01:30:02.389Z,604.00
2018-09-23T01:31:02.413Z,604.00
2018-09-23T01:32:02.441Z,604.00
2018-09-23T01:33:02.462Z,600.00
2018-09-23T01:34:02.484Z,600.00
2018-09-23T01:35:02.509Z,600.00
2018-09-23T01:36:02.535Z,604.00
2018-09-23T01:37:02.557Z,604.00
2018-09-23T01:38:02.583Z,600.00
2018-09-23T01:39:02.609Z,604.00
2018-09-23T01:40:02.629Z,604.00
2018-09-23T01:41:02.656Z,604.00
2018-09-23T01:42:02.678Z,604.00
2018-09-23T01:43:02.700Z,604.00
2018-09-23T01:44:02.729Z,604.00
2018-09-23T01:45:02.750Z,604.00
2018-09-23T01:46:02.773Z,604.00
2018-09-23T01:47:02.799Z,604.00
2018-09-23T01:48:02.820Z,604.00
2018-09-23T01:49:02.844Z,604.00
2018-09-23T01:50:02.869Z,604.00
2018-09-23T01:51:02.892Z,604.00
2018-09-23T01:52:02.913Z,604.00
2018-09-23T01:53:02.940Z,604.00
2018-09-23T01:54:02.962Z,604.00
2018-09-23T01:55:02.986Z,600.00
2018-09-23T01:56:03.010Z,604.00
2018-09-23T01:57:03.041Z,600.00
2018-09-23T01:58:03.056Z,604.00
2018-09-23T01:59:03.081Z,604.00
2018-09-23T02:00:03.108Z,604.00
2018-09-23T02:01:03.130Z,604.00
2018-09-23T02:02:03.158Z,604.00
2018-09-23T02:03:03.180Z,604.00
2018-09-23T02:04:03.199Z,604.00
2018-09-23T02:05:03.228Z,604.00
2018-09-23T02:06:03.252Z,600.00
2018-09-23T02:07:03.274Z,600.00
2018-09-23T02:08:03.300Z,604.00
2018-09-23T02:09:03.321Z,600.00
2018-09-23T02:10:03.347Z,604.00
2018-09-23T02:11:03.368Z,600.00
2018-09-23T02:12:03.391Z,600.00
2018-09-23T02:13:03.416Z,604.00
2018-09-23T02:14:03.444Z,600.00
2018-09-23T02:15:03.464Z,604.00
2018-09-23T02:16:03.488Z,600.00
2018-09-23T02:17:03.511Z,604.00
2018-09-23T02:18:03.536Z,600.00
2018-09-23T02:19:03.559Z,604.00
2018-09-23T02:20:03.583Z,604.00
2018-09-23T02:21:03.634Z,604.00
2018-09-23T02:22:03.632Z,604.00
2018-09-23T02:23:03.655Z,604.00
2018-09-23T02:24:03.679Z,604.00
2018-09-23T02:25:03.704Z,604.00
2018-09-23T02:26:03.732Z,604.00
2018-09-23T02:27:03.750Z,604.00
2018-09-23T02:28:03.775Z,604.00
2018-09-23T02:29:03.798Z,600.00
2018-09-23T02:30:03.821Z,604.00
2018-09-23T02:31:03.849Z,604.00
2018-09-23T02:32:03.874Z,604.00
2018-09-23T02:33:03.893Z,604.00
2018-09-23T02:34:03.920Z,604.00
2018-09-23T02:35:03.941Z,604.00
2018-09-23T02:36:03.965Z,604.00
2018-09-23T02:37:03.988Z,604.00
2018-09-23T02:38:04.020Z,604.00
2018-09-23T02:39:04.037Z,604.00
2018-09-23T02:40:04.062Z,604.00
2018-09-23T02:41:04.087Z,604.00
2018-09-23T02:42:04.109Z,604.00
2018-09-23T02:43:04.132Z,604.00
2018-09-23T02:44:04.156Z,604.00
2018-09-23T02:45:04.184Z,604.00
2018-09-23T02:46:04.204Z,604.00
2018-09-23T02:47:04.227Z,604.00
2018-09-23T02:48:04.252Z,604.00
2018-09-23T02:49:04.275Z,604.00
2018-09-23T02:50:04.301Z,604.00
2018-09-23T02:51:04.326Z,604.00
2018-09-23T02:52:04.346Z,604.00
2018-09-23T02:53:04.373Z,604.00
2018-09-23T02:54:04.397Z,604.00
2018-09-23T02:55:04.419Z,608.00
2018-09-23T02:56:04.445Z,604.00
2018-09-23T02:57:04.471Z,604.00
2018-09-23T02:58:04.491Z,600.00
2018-09-23T02:59:04.515Z,600.00
2018-09-23T03:00:04.536Z,604.00
2018-09-23T03:01:04.561Z,604.00
2018-09-23T03:02:04.585Z,600.00
2018-09-23T03:03:04.611Z,600.00
2018-09-23T03:04:04.631Z,612.00
2018-09-23T03:05:04.658Z,616.00
2018-09-23T03:06:04.682Z,616.00
2018-09-23T03:07:04.704Z,616.00
2018-09-23T03:08:04.729Z,616.00
2018-09-23T03:09:04.756Z,616.00
2018-09-23T03:10:04.779Z,616.00
2018-09-23T03:11:04.800Z,616.00
2018-09-23T03:12:04.827Z,616.00
2018-09-23T03:13:04.849Z,616.00
2018-09-23T03:14:04.875Z,616.00
2018-09-23T03:15:04.902Z,616.00
2018-09-23T03:16:04.926Z,616.00
2018-09-23T03:17:04.945Z,616.00
2018-09-23T03:18:04.976Z,616.00
2018-09-23T03:19:04.992Z,616.00
2018-09-23T03:20:05.015Z,616.00
2018-09-23T03:21:05.040Z,616.00
2018-09-23T03:22:05.064Z,616.00
2018-09-23T03:23:05.087Z,616.00
2018-09-23T03:24:05.121Z,616.00
2018-09-23T03:25:05.135Z,616.00
2018-09-23T03:26:05.159Z,616.00
2018-09-23T03:27:05.182Z,616.00
2018-09-23T03:28:05.212Z,616.00
2018-09-23T03:29:05.231Z,612.00
2018-09-23T03:30:05.258Z,616.00
2018-09-23T03:31:05.277Z,616.00
2018-09-23T03:32:05.302Z,616.00
2018-09-23T03:33:05.326Z,616.00
2018-09-23T03:34:05.350Z,616.00
2018-09-23T03:35:05.375Z,616.00
2018-09-23T03:36:05.396Z,616.00
2018-09-23T03:37:05.422Z,616.00
2018-09-23T03:38:05.451Z,616.00
2018-09-23T03:39:05.470Z,616.00
2018-09-23T03:40:05.495Z,616.00
2018-09-23T03:41:05.519Z,616.00
2018-09-23T03:42:05.542Z,616.00
2018-09-23T03:43:05.568Z,616.00
2018-09-23T03:44:05.589Z,616.00
2018-09-23T03:45:05.614Z,616.00
2018-09-23T03:46:05.638Z,616.00
2018-09-23T03:47:05.662Z,616.00
2018-09-23T03:48:05.688Z,616.00
2018-09-23T03:49:05.710Z,616.00
2018-09-23T03:50:05.737Z,616.00
2018-09-23T03:51:05.756Z,616.00
2018-09-23T03:52:05.781Z,616.00
2018-09-23T03:53:05.807Z,612.00
2018-09-23T03:54:05.829Z,616.00
2018-09-23T03:55:05.852Z,616.00
2018-09-23T03:56:05.881Z,612.00
2018-09-23T03:57:05.901Z,616.00
2018-09-23T03:58:05.933Z,612.00
2018-09-23T03:59:05.949Z,616.00
2018-09-23T04:00:05.973Z,616.00
2018-09-23T04:01:05.997Z,612.00
2018-09-23T04:02:06.028Z,616.00
2018-09-23T04:03:06.044Z,612.00
2018-09-23T04:04:06.071Z,612.00
2018-09-23T04:05:06.094Z,612.00
2018-09-23T04:06:06.116Z,616.00
2018-09-23T04:07:06.140Z,612.00
2018-09-23T04:08:06.166Z,612.00
2018-09-23T04:09:06.190Z,612.00
2018-09-23T04:10:06.213Z,612.00
2018-09-23T04:11:06.237Z,612.00
2018-09-23T04:12:06.289Z,612.00
2018-09-23T04:13:06.285Z,612.00
2018-09-23T04:14:06.309Z,612.00
2018-09-23T04:15:06.336Z,612.00
2018-09-23T04:16:06.355Z,612.00
2018-09-23T04:17:06.380Z,612.00
2018-09-23T04:18:06.409Z,612.00
2018-09-23T04:19:06.428Z,612.00
2018-09-23T04:20:06.453Z,612.00
2018-09-23T04:21:06.476Z,612.00
2018-09-23T04:22:06.503Z,612.00
2018-09-23T04:23:06.522Z,612.00
2018-09-23T04:24:06.548Z,616.00
2018-09-23T04:25:06.571Z,616.00
2018-09-23T04:26:06.601Z,612.00
2018-09-23T04:27:06.643Z,616.00
2018-09-23T04:28:06.644Z,612.00
2018-09-23T04:29:06.672Z,616.00
2018-09-23T04:30:06.693Z,616.00
2018-09-23T04:31:06.714Z,616.00
2018-09-23T04:32:06.741Z,612.00
2018-09-23T04:33:06.762Z,612.00
2018-09-23T04:34:06.789Z,612.00
2018-09-23T04:35:06.810Z,612.00
2018-09-23T04:36:06.833Z,612.00
2018-09-23T04:37:06.859Z,612.00
2018-09-23T04:38:06.881Z,612.00
2018-09-23T04:39:06.905Z,612.00
2018-09-23T04:40:06.933Z,612.00
2018-09-23T04:41:06.952Z,612.00
2018-09-23T04:42:06.979Z,612.00
2018-09-23T04:43:07.005Z,612.00
2018-09-23T04:44:07.025Z,612.00
2018-09-23T04:45:07.049Z,612.00
2018-09-23T04:46:07.073Z,612.00
2018-09-23T04:47:07.099Z,612.00
2018-09-23T04:48:07.127Z,616.00
2018-09-23T04:49:07.147Z,612.00
2018-09-23T04:50:07.170Z,612.00
2018-09-23T04:51:07.192Z,616.00
2018-09-23T04:52:07.216Z,616.00
2018-09-23T04:53:07.244Z,616.00
2018-09-23T04:54:07.265Z,616.00
2018-09-23T04:55:07.289Z,620.00
2018-09-23T04:56:07.312Z,616.00
2018-09-23T04:57:07.340Z,616.00
2018-09-23T04:58:07.363Z,616.00
2018-09-23T04:59:07.386Z,616.00
2018-09-23T05:00:07.408Z,616.00
2018-09-23T05:01:07.433Z,620.00
2018-09-23T05:02:07.456Z,624.00
2018-09-23T05:03:07.479Z,624.00
2018-09-23T05:04:07.502Z,624.00
2018-09-23T05:05:07.527Z,620.00
2018-09-23T05:06:07.552Z,624.00
2018-09-23T05:07:07.575Z,624.00
2018-09-23T05:08:07.599Z,624.00
2018-09-23T05:09:07.624Z,628.00
2018-09-23T05:10:07.650Z,628.00
2018-09-23T05:11:07.669Z,632.00
2018-09-23T05:12:07.696Z,628.00
2018-09-23T05:13:07.724Z,632.00
2018-09-23T05:14:07.767Z,636.00
2018-09-23T05:15:07.770Z,640.00
2018-09-23T05:16:07.798Z,640.00
2018-09-23T05:17:07.814Z,644.00
2018-09-23T05:18:07.839Z,644.00
2018-09-23T05:19:07.865Z,644.00
2018-09-23T05:20:07.887Z,644.00
2018-09-23T05:21:07.914Z,644.00
2018-09-23T05:22:07.938Z,644.00
2018-09-23T05:23:07.957Z,648.00
2018-09-23T05:24:07.983Z,648.00
2018-09-23T05:25:08.008Z,652.00
2018-09-23T05:26:08.031Z,656.00
2018-09-23T05:27:08.055Z,660.00
2018-09-23T05:28:08.077Z,672.00
2018-09-23T05:29:08.101Z,684.00
2018-09-23T05:30:08.126Z,692.00
2018-09-23T05:31:08.182Z,704.00
2018-09-23T05:32:08.177Z,720.00
2018-09-23T05:33:08.199Z,732.00
2018-09-23T05:34:08.223Z,744.00
2018-09-23T05:35:08.248Z,756.00
2018-09-23T05:36:08.269Z,764.00
2018-09-23T05:37:08.294Z,764.00
2018-09-23T05:38:08.320Z,756.00
2018-09-23T05:39:08.341Z,752.00
2018-09-23T05:40:08.368Z,748.00
2018-09-23T05:41:08.390Z,744.00
2018-09-23T05:42:08.414Z,744.00
2018-09-23T05:43:08.438Z,744.00
2018-09-23T05:44:08.546Z,748.00
2018-09-23T05:45:08.488Z,760.00
2018-09-23T05:46:08.510Z,772.00
2018-09-23T05:47:08.533Z,784.00
2018-09-23T05:48:08.557Z,796.00
2018-09-23T05:49:08.582Z,804.00
2018-09-23T05:50:08.608Z,808.00
2018-09-23T05:51:08.630Z,816.00
2018-09-23T05:52:08.653Z,828.00
2018-09-23T05:53:08.735Z,836.00
2018-09-23T05:54:08.708Z,844.00
2018-09-23T05:55:08.725Z,852.00
2018-09-23T05:56:08.750Z,852.00
2018-09-23T05:57:08.774Z,856.00
2018-09-23T05:58:08.797Z,856.00
2018-09-23T05:59:08.821Z,848.00
2018-09-23T06:00:08.849Z,836.00
2018-09-23T06:01:08.870Z,832.00
2018-09-23T06:02:08.896Z,828.00
2018-09-23T06:03:08.956Z,832.00
2018-09-23T06:04:08.946Z,832.00
2018-09-23T06:05:08.964Z,840.00
2018-09-23T06:06:08.990Z,844.00
2018-09-23T06:07:09.014Z,844.00
2018-09-23T06:08:09.038Z,848.00
2018-09-23T06:09:09.065Z,848.00
2018-09-23T06:10:09.086Z,848.00
2018-09-23T06:11:09.135Z,852.00
2018-09-23T06:12:09.135Z,856.00
2018-09-23T06:13:09.158Z,864.00
2018-09-23T06:14:09.189Z,856.00
2018-09-23T06:15:09.207Z,852.00
2018-09-23T06:16:09.230Z,840.00
2018-09-23T06:17:09.269Z,832.00
2018-09-23T06:18:09.279Z,828.00
2018-09-23T06:19:09.302Z,828.00
2018-09-23T06:20:09.323Z,836.00
2018-09-23T06:21:09.351Z,848.00
2018-09-23T06:22:09.375Z,864.00
2018-09-23T06:23:09.400Z,884.00
2018-09-23T06:24:09.424Z,908.00
2018-09-23T06:25:09.464Z,932.00
2018-09-23T06:26:09.471Z,948.00
2018-09-23T06:27:09.498Z,964.00
2018-09-23T06:28:09.520Z,976.00
2018-09-23T06:29:09.543Z,984.00
2018-09-23T06:30:09.567Z,992.00
2018-09-23T06:31:09.593Z,996.00
2018-09-23T06:32:09.615Z,1008.00
2018-09-23T06:33:09.641Z,1020.00
2018-09-23T06:34:09.683Z,1044.00
2018-09-23T06:35:09.691Z,1072.00
2018-09-23T06:36:09.712Z,1100.00
2018-09-23T06:37:09.738Z,1124.00
2018-09-23T06:38:09.762Z,1148.00
2018-09-23T06:39:09.783Z,1156.00
2018-09-23T06:40:09.810Z,1160.00
2018-09-23T06:41:09.833Z,1160.00
2018-09-23T06:42:09.884Z,1148.00
2018-09-23T06:43:09.884Z,1144.00
2018-09-23T06:44:09.905Z,1156.00
2018-09-23T06:45:09.930Z,1184.00
2018-09-23T06:46:09.956Z,1228.00
2018-09-23T06:47:09.977Z,1264.00
2018-09-23T06:48:10.001Z,1304.00
2018-09-23T06:49:10.027Z,1324.00
2018-09-23T06:50:10.050Z,1328.00
2018-09-23T06:51:10.116Z,1324.00
2018-09-23T06:52:10.099Z,1312.00
2018-09-23T06:53:10.121Z,1300.00
2018-09-23T06:54:10.146Z,1300.00
2018-09-23T06:55:10.169Z,1308.00
2018-09-23T06:56:10.195Z,1316.00
2018-09-23T06:57:10.231Z,1328.00
2018-09-23T06:58:10.245Z,1316.00
2018-09-23T06:59:10.267Z,1312.00
2018-09-23T07:00:10.294Z,1328.00
2018-09-23T07:01:10.316Z,1348.00
2018-09-23T07:02:10.342Z,1360.00
2018-09-23T07:03:10.369Z,1364.00
2018-09-23T07:04:10.392Z,1372.00
2018-09-23T07:05:10.412Z,1392.00
2018-09-23T07:06:10.436Z,1396.00
2018-09-23T07:07:10.459Z,1380.00
2018-09-23T07:08:10.483Z,1340.00
2018-09-23T07:09:10.508Z,1308.00
2018-09-23T07:10:10.532Z,1292.00
2018-09-23T07:11:10.556Z,1280.00
2018-09-23T07:12:10.582Z,1280.00
2018-09-23T07:13:10.605Z,1296.00
2018-09-23T07:14:10.632Z,1316.00
2018-09-23T07:15:10.653Z,1328.00
2018-09-23T07:16:10.678Z,1328.00
2018-09-23T07:17:10.708Z,1324.00
2018-09-23T07:18:10.763Z,1324.00
2018-09-23T07:19:10.751Z,1336.00
2018-09-23T07:20:10.776Z,1360.00
2018-09-23T07:21:10.799Z,1368.00
2018-09-23T07:22:10.826Z,1336.00
2018-09-23T07:23:10.848Z,1288.00
2018-09-23T07:24:10.901Z,1244.00
2018-09-23T07:25:10.897Z,1228.00
2018-09-23T07:26:10.921Z,1220.00
2018-09-23T07:27:10.954Z,1224.00
2018-09-23T07:28:10.972Z,1240.00
2018-09-23T07:29:10.999Z,1248.00
2018-09-23T07:30:11.017Z,1256.00
2018-09-23T07:31:11.042Z,1264.00
2018-09-23T07:32:11.067Z,1272.00
2018-09-23T07:33:11.091Z,1280.00
2018-09-23T07:34:11.117Z,1288.00
2018-09-23T07:35:11.141Z,1308.00
2018-09-23T07:36:11.164Z,1324.00
2018-09-23T07:37:11.250Z,1376.00
2018-09-23T07:38:11.213Z,1444.00
2018-09-23T07:39:11.237Z,1508.00
2018-09-23T07:40:11.262Z,1556.00
2018-09-23T07:41:11.286Z,1584.00
2018-09-23T07:42:11.315Z,1628.00
2018-09-23T07:43:11.333Z,1672.00
2018-09-23T07:44:11.362Z,1720.00
2018-09-23T07:45:11.388Z,1796.00
2018-09-23T07:46:11.405Z,1912.00
2018-09-23T07:47:11.484Z,1988.00
2018-09-23T07:48:11.569Z,1988.00
2018-09-23T07:49:11.480Z,1960.00
2018-09-23T07:50:11.507Z,1996.00
2018-09-23T07:51:11.528Z,2020.00
2018-09-23T07:52:11.551Z,2020.00
2018-09-23T07:53:11.579Z,2008.00
2018-09-23T07:54:11.603Z,1996.00
2018-09-23T07:55:11.626Z,1964.00
2018-09-23T07:56:11.672Z,1904.00
2018-09-23T07:57:11.676Z,1884.00
2018-09-23T07:58:11.698Z,1908.00
2018-09-23T07:59:11.724Z,1932.00
2018-09-23T08:00:11.752Z,1964.00
2018-09-23T08:01:11.775Z,2004.00
2018-09-23T08:02:11.797Z,2032.00
2018-09-23T08:03:11.824Z,2040.00
2018-09-23T08:04:11.853Z,2044.00
2018-09-23T08:05:11.872Z,2052.00
2018-09-23T08:06:11.895Z,2068.00
2018-09-23T08:07:11.922Z,2084.00
2018-09-23T08:08:11.945Z,2096.00
2018-09-23T08:09:11.968Z,2120.00
2018-09-23T08:10:11.994Z,2140.00
2018-09-23T08:11:12.020Z,2160.00
2018-09-23T08:12:12.046Z,2180.00
2018-09-23T08:13:12.191Z,2192.00
2018-09-23T08:14:12.532Z,2200.00
2018-09-23T08:15:12.116Z,2164.00
2018-09-23T08:16:12.141Z,2132.00
2018-09-23T08:17:12.233Z,2152.00
2018-09-23T08:18:12.190Z,2188.00
2018-09-23T08:19:12.239Z,2224.00
2018-09-23T08:20:12.385Z,2260.00
2018-09-23T08:21:12.279Z,2272.00
2018-09-23T08:22:12.289Z,2280.00
2018-09-23T08:23:12.418Z,2308.00
2018-09-23T08:24:12.340Z,2364.00
2018-09-23T08:25:12.495Z,2444.00
2018-09-23T08:26:12.395Z,2552.00
2018-09-23T08:27:12.414Z,2620.00
2018-09-23T08:28:12.438Z,2636.00
2018-09-23T08:29:12.465Z,2632.00
2018-09-23T08:30:12.486Z,2624.00
2018-09-23T08:31:12.510Z,2600.00
2018-09-23T08:32:12.535Z,2564.00
2018-09-23T08:33:12.563Z,2520.00
2018-09-23T08:34:12.590Z,2488.00
2018-09-23T08:35:12.613Z,2472.00
2018-09-23T08:36:12.634Z,2468.00
2018-09-23T08:37:12.665Z,2468.00
2018-09-23T08:38:12.686Z,2472.00
2018-09-23T08:39:12.711Z,2476.00
2018-09-23T08:40:12.734Z,2500.00
2018-09-23T08:41:12.758Z,2576.00
2018-09-23T08:42:12.783Z,2652.00
2018-09-23T08:43:12.858Z,2712.00
2018-09-23T08:44:12.831Z,2716.00
2018-09-23T08:45:12.859Z,2704.00
2018-09-23T08:46:12.891Z,2660.00
2018-09-23T08:47:12.904Z,2568.00
2018-09-23T08:48:12.988Z,2484.00
2018-09-23T08:49:12.965Z,2420.00
2018-09-23T08:50:12.983Z,2376.00
2018-09-23T08:51:13.006Z,2336.00
2018-09-23T08:52:13.129Z,2320.00
2018-09-23T08:53:13.057Z,2344.00
2018-09-23T08:54:13.081Z,2376.00
2018-09-23T08:55:13.106Z,2436.00
2018-09-23T08:56:13.131Z,2528.00
2018-09-23T08:57:13.162Z,2584.00
2018-09-23T08:58:13.181Z,2620.00
2018-09-23T08:59:13.206Z,2628.00
2018-09-23T09:00:13.230Z,2644.00
2018-09-23T09:01:13.256Z,2652.00
2018-09-23T09:02:13.280Z,2584.00
2018-09-23T09:03:13.310Z,2472.00
2018-09-23T09:04:13.332Z,2352.00
2018-09-23T09:05:13.355Z,2272.00
2018-09-23T09:06:13.385Z,2248.00
2018-09-23T09:07:13.406Z,2232.00
2018-09-23T09:08:13.433Z,2240.00
2018-09-23T09:09:13.455Z,2240.00
2018-09-23T09:10:13.480Z,2232.00
2018-09-23T09:11:13.504Z,2224.00
2018-09-23T09:12:13.527Z,2216.00
2018-09-23T09:13:13.555Z,2216.00
2018-09-23T09:14:13.582Z,2212.00
2018-09-23T09:15:13.604Z,2232.00
2018-09-23T09:16:13.629Z,2292.00
2018-09-23T09:17:13.655Z,2380.00
2018-09-23T09:18:13.690Z,2456.00
2018-09-23T09:19:13.702Z,2524.00
2018-09-23T09:20:13.732Z,2556.00
2018-09-23T09:21:13.757Z,2496.00
2018-09-23T09:22:13.780Z,2344.00
2018-09-23T09:23:13.804Z,2204.00
2018-09-23T09:24:13.829Z,2144.00
2018-09-23T09:25:13.855Z,2116.00
2018-09-23T09:26:13.879Z,2096.00
2018-09-23T09:27:13.903Z,2068.00
2018-09-23T09:28:13.927Z,2048.00
2018-09-23T09:29:13.953Z,2032.00
2018-09-23T09:30:13.981Z,2012.00
2018-09-23T09:31:14.003Z,1980.00
2018-09-23T09:32:14.030Z,1944.00
2018-09-23T09:33:14.054Z,1908.00
2018-09-23T09:34:14.089Z,1856.00
2018-09-23T09:35:14.102Z,1832.00
2018-09-23T09:36:14.130Z,1832.00
2018-09-23T09:37:14.162Z,1832.00
2018-09-23T09:38:14.179Z,1816.00
2018-09-23T09:39:14.205Z,1764.00
2018-09-23T09:40:14.228Z,1692.00
2018-09-23T09:41:14.259Z,1620.00
2018-09-23T09:42:14.279Z,1572.00
2018-09-23T09:43:14.305Z,1536.00
2018-09-23T09:44:14.332Z,1500.00
2018-09-23T09:45:14.354Z,1476.00
2018-09-23T09:46:14.380Z,1448.00
2018-09-23T09:47:14.403Z,1436.00
2018-09-23T09:48:14.429Z,1452.00
2018-09-23T09:49:14.454Z,1460.00
2018-09-23T09:50:14.479Z,1452.00
2018-09-23T09:51:14.506Z,1440.00
2018-09-23T09:52:14.527Z,1408.00
2018-09-23T09:53:14.553Z,1392.00
2018-09-23T09:54:14.578Z,1396.00
2018-09-23T09:55:14.651Z,1408.00
2018-09-23T09:56:14.628Z,1424.00
2018-09-23T09:57:14.653Z,1424.00
2018-09-23T09:58:14.677Z,1420.00
2018-09-23T09:59:14.702Z,1432.00
2018-09-23T10:00:14.733Z,1448.00
2018-09-23T10:01:14.756Z,1464.00
2018-09-23T10:02:14.780Z,1476.00
2018-09-23T10:03:14.801Z,1484.00
2018-09-23T10:04:14.865Z,1480.00
2018-09-23T10:05:14.851Z,1468.00
2018-09-23T10:06:14.875Z,1456.00
2018-09-23T10:07:14.900Z,1448.00
2018-09-23T10:08:14.929Z,1428.00
2018-09-23T10:09:14.952Z,1404.00
2018-09-23T10:10:14.980Z,1376.00
2018-09-23T10:11:15.001Z,1352.00
2018-09-23T10:12:15.026Z,1332.00
2018-09-23T10:13:15.049Z,1316.00
2018-09-23T10:14:15.075Z,1316.00
2018-09-23T10:15:15.101Z,1320.00
2018-09-23T10:16:15.132Z,1336.00
2018-09-23T10:17:15.149Z,1340.00
2018-09-23T10:18:15.174Z,1328.00
2018-09-23T10:19:15.200Z,1308.00
2018-09-23T10:20:15.230Z,1280.00
2018-09-23T10:21:15.249Z,1256.00
2018-09-23T10:22:15.274Z,1236.00
2018-09-23T10:23:15.421Z,1220.00
2018-09-23T10:24:15.322Z,1204.00
2018-09-23T10:25:15.352Z,1188.00
2018-09-23T10:26:15.379Z,1180.00
2018-09-23T10:27:15.398Z,1184.00
2018-09-23T10:28:15.424Z,1200.00
2018-09-23T10:29:15.449Z,1220.00
2018-09-23T10:30:15.472Z,1236.00
2018-09-23T10:31:15.600Z,1244.00
2018-09-23T10:32:15.520Z,1236.00
2018-09-23T10:33:15.547Z,1204.00
2018-09-23T10:34:15.570Z,1168.00
2018-09-23T10:35:15.594Z,1136.00
2018-09-23T10:36:15.653Z,1108.00
2018-09-23T10:37:15.644Z,1096.00
2018-09-23T10:38:15.674Z,1080.00
2018-09-23T10:39:15.699Z,1056.00
2018-09-23T10:40:15.722Z,1032.00
2018-09-23T10:41:15.791Z,1008.00
2018-09-23T10:42:15.768Z,984.00
2018-09-23T10:43:15.793Z,968.00
2018-09-23T10:44:15.824Z,964.00
2018-09-23T10:45:15.842Z,968.00
2018-09-23T10:46:15.865Z,984.00
2018-09-23T10:47:15.892Z,1000.00
2018-09-23T10:48:15.921Z,1024.00
2018-09-23T10:49:15.944Z,1056.00
2018-09-23T10:50:15.969Z,1096.00
2018-09-23T10:51:15.992Z,1132.00
2018-09-23T10:52:16.015Z,1188.00
2018-09-23T10:53:16.043Z,1232.00
2018-09-23T10:54:16.065Z,1264.00
2018-09-23T10:55:16.091Z,1296.00
2018-09-23T10:56:16.113Z,1324.00
2018-09-23T10:57:16.143Z,1356.00
2018-09-23T10:58:16.163Z,1380.00
2018-09-23T10:59:16.191Z,1380.00
2018-09-23T11:00:16.212Z,1360.00
2018-09-23T11:01:16.236Z,1328.00
2018-09-23T11:02:16.262Z,1292.00
2018-09-23T11:03:16.286Z,1264.00
2018-09-23T11:04:16.378Z,1256.00
2018-09-23T11:05:16.336Z,1260.00
2018-09-23T11:06:16.366Z,1280.00
2018-09-23T11:07:16.441Z,1308.00
2018-09-23T11:08:16.409Z,1356.00
2018-09-23T11:09:16.436Z,1408.00
2018-09-23T11:10:16.461Z,1448.00
2018-09-23T11:11:16.488Z,1476.00
2018-09-23T11:12:16.514Z,1524.00
2018-09-23T11:13:16.547Z,1560.00
2018-09-23T11:14:16.558Z,1568.00
2018-09-23T11:15:16.672Z,1564.00
2018-09-23T11:16:16.612Z,1532.00
2018-09-23T11:17:16.633Z,1488.00
2018-09-23T11:18:16.658Z,1456.00
2018-09-23T11:19:16.703Z,1440.00
2018-09-23T11:20:16.705Z,1456.00
2018-09-23T11:21:16.730Z,1484.00
2018-09-23T11:22:16.755Z,1472.00
2018-09-23T11:23:16.819Z,1424.00
2018-09-23T11:24:16.804Z,1404.00
2018-09-23T11:25:16.834Z,1424.00
2018-09-23T11:26:16.857Z,1472.00
2018-09-23T11:27:16.896Z,1520.00
2018-09-23T11:28:16.904Z,1560.00
2018-09-23T11:29:16.927Z,1592.00
2018-09-23T11:30:16.954Z,1616.00
2018-09-23T11:31:16.979Z,1648.00
2018-09-23T11:32:17.004Z,1676.00
2018-09-23T11:33:17.027Z,1704.00
2018-09-23T11:34:17.051Z,1728.00
2018-09-23T11:35:17.079Z,1740.00
2018-09-23T11:36:17.101Z,1744.00
2018-09-23T11:37:17.125Z,1724.00
2018-09-23T11:38:17.150Z,1676.00
2018-09-23T11:39:17.177Z,1568.00
2018-09-23T11:40:17.201Z,1444.00
2018-09-23T11:41:17.223Z,1344.00
2018-09-23T11:42:17.250Z,1284.00
2018-09-23T11:43:17.275Z,1268.00
2018-09-23T11:44:17.298Z,1272.00
2018-09-23T11:45:17.325Z,1248.00
2018-09-23T11:46:17.350Z,1212.00
2018-09-23T11:47:17.373Z,1196.00
2018-09-23T11:48:17.399Z,1188.00
2018-09-23T11:49:17.422Z,1180.00
2018-09-23T11:50:17.447Z,1176.00
2018-09-23T11:51:17.475Z,1160.00
2018-09-23T11:52:17.498Z,1140.00
2018-09-23T11:53:17.524Z,1136.00
2018-09-23T11:54:17.547Z,1140.00
2018-09-23T11:55:17.571Z,1140.00
2018-09-23T11:56:17.596Z,1124.00
2018-09-23T11:57:17.618Z,1096.00
2018-09-23T11:58:17.647Z,1084.00
2018-09-23T11:59:17.667Z,1084.00
2018-09-23T12:00:17.694Z,1088.00
2018-09-23T12:01:17.721Z,1096.00
2018-09-23T12:02:17.786Z,1116.00
2018-09-23T12:03:17.768Z,1132.00
2018-09-23T12:04:17.816Z,1140.00
2018-09-23T12:05:17.819Z,1148.00
2018-09-23T12:06:17.842Z,1156.00
2018-09-23T12:07:17.866Z,1160.00
2018-09-23T12:08:17.896Z,1164.00
2018-09-23T12:09:17.921Z,1172.00
2018-09-23T12:10:17.983Z,1184.00
2018-09-23T12:11:17.973Z,1188.00
2018-09-23T12:12:17.989Z,1184.00
2018-09-23T12:13:18.014Z,1188.00
2018-09-23T12:14:18.044Z,1200.00
2018-09-23T12:15:18.065Z,1216.00
2018-09-23T12:16:18.086Z,1228.00
2018-09-23T12:17:18.117Z,1240.00